createdAt,value
2019-02-14T00:06:14.385Z,28.30
2019-02-14T00:11:19.620Z,28.13
2019-02-14T00:16:24.812Z,23.70
2019-02-14T00:27:00.255Z,28.37
2019-02-14T00:32:05.783Z,23.23
2019-02-14T00:37:11.041Z,31.13
2019-02-14T00:47:46.774Z,28.97
2019-02-14T00:53:11.153Z,31.50
2019-02-14T00:58:16.358Z,30.60
2019-02-14T01:03:21.572Z,26.13
2019-02-14T01:08:38.163Z,28.23
2019-02-14T01:13:43.394Z,26.70
2019-02-14T01:18:48.585Z,20.47
2019-02-14T01:24:12.910Z,23.33
2019-02-14T01:39:52.640Z,29.60
2019-02-14T01:44:58.241Z,22.70
2019-02-14T01:50:03.556Z,19.53
2019-02-14T01:55:23.757Z,23.73
2019-02-14T02:00:28.983Z,19.20
2019-02-14T02:17:00.087Z,20.63
2019-02-14T02:27:35.174Z,20.80
2019-02-14T02:32:59.364Z,23.17
2019-02-14T02:38:05.255Z,26.20
2019-02-14T02:43:29.519Z,28.17
2019-02-14T02:54:02.842Z,25.73
2019-02-14T02:59:08.077Z,24.73
2019-02-14T03:09:29.593Z,23.03
2019-02-14T03:14:34.821Z,22.57
2019-02-14T03:19:40.028Z,19.10
2019-02-14T03:24:45.226Z,22.10
2019-02-14T03:35:22.227Z,24.17
2019-02-14T03:57:08.989Z,18.67
2019-02-14T04:02:14.188Z,19.87
2019-02-14T04:07:49.928Z,20.30
2019-02-14T04:12:55.126Z,21.50
2019-02-14T04:23:17.432Z,20.37
2019-02-14T04:28:22.639Z,21.93
2019-02-14T04:33:47.223Z,21.43
2019-02-14T04:39:05.012Z,20.03
2019-02-14T04:44:10.299Z,23.07
2019-02-14T04:49:27.632Z,17.83
2019-02-14T04:54:44.337Z,21.80
2019-02-14T04:59:49.528Z,18.90
2019-02-14T05:04:54.726Z,20.83
2019-02-14T05:09:59.919Z,18.23
2019-02-14T05:15:24.317Z,17.93
2019-02-14T05:20:29.550Z,19.27
2019-02-14T05:25:34.759Z,20.03
2019-02-14T05:36:16.604Z,23.13
2019-02-14T05:41:40.917Z,24.47
2019-02-14T05:46:57.997Z,36.17
2019-02-14T05:57:33.004Z,28.93
2019-02-14T06:07:55.352Z,28.17
2019-02-14T06:13:11.881Z,27.27
2019-02-14T06:18:17.159Z,27.67
2019-02-14T06:28:38.949Z,24.87
2019-02-14T06:39:20.436Z,28.67
2019-02-14T06:44:25.732Z,30.43
2019-02-14T06:49:31.027Z,25.30
2019-02-14T06:54:55.285Z,24.10
2019-02-14T07:00:31.219Z,29.07
2019-02-14T07:05:36.520Z,25.77
2019-02-14T07:10:41.991Z,33.53
2019-02-14T07:15:47.189Z,32.93
2019-02-14T07:21:11.458Z,29.37
2019-02-14T07:26:16.696Z,29.63
2019-02-14T07:31:22.174Z,28.40
2019-02-14T07:36:46.753Z,29.73
2019-02-14T07:41:51.958Z,29.37
2019-02-14T07:46:57.278Z,24.13
2019-02-14T07:57:29.456Z,21.77
2019-02-14T08:02:34.712Z,18.77
2019-02-14T08:08:00.661Z,21.33
2019-02-14T08:13:06.024Z,24.03
2019-02-14T08:18:11.211Z,21.43
2019-02-14T08:23:16.408Z,39.23
2019-02-14T08:28:21.700Z,27.77
2019-02-14T08:33:27.263Z,24.97
2019-02-14T08:38:51.514Z,25.90
2019-02-14T08:44:15.625Z,33.47
2019-02-14T08:49:39.830Z,36.17
2019-02-14T09:00:41.138Z,21.80
2019-02-14T09:05:46.407Z,25.10
2019-02-14T09:10:52.070Z,29.00
2019-02-14T09:26:51.143Z,21.17
2019-02-14T09:31:56.362Z,18.33
2019-02-14T09:37:13.100Z,17.47
2019-02-14T09:42:18.387Z,18.73
2019-02-14T09:47:23.670Z,19.50
2019-02-14T09:52:29.196Z,18.90
2019-02-14T09:57:34.375Z,16.57
2019-02-14T10:08:21.102Z,18.67
2019-02-14T10:29:36.394Z,13.57
2019-02-14T10:34:47.506Z,16.57
2019-02-14T10:39:53.079Z,17.03
2019-02-14T10:50:15.323Z,16.87
2019-02-14T10:55:32.284Z,12.73
2019-02-14T11:00:37.601Z,18.93
2019-02-14T11:05:42.854Z,19.87
2019-02-14T11:10:59.709Z,16.73
2019-02-14T11:16:05.859Z,14.63
2019-02-14T11:21:11.072Z,14.57
2019-02-14T11:31:34.691Z,16.03
2019-02-14T11:37:08.379Z,14.97
2019-02-14T11:58:31.302Z,10.83
2019-02-14T12:03:36.590Z,7.43
2019-02-14T12:08:53.011Z,8.93
2019-02-14T12:14:05.348Z,17.37
2019-02-14T12:19:10.549Z,19.23
2019-02-14T12:24:15.803Z,9.43
2019-02-14T12:29:39.991Z,8.57
2019-02-14T12:35:04.093Z,11.60
2019-02-14T12:51:02.305Z,11.70
2019-02-14T12:56:28.084Z,9.20
2019-02-14T13:06:50.452Z,11.17
2019-02-14T13:12:15.822Z,8.33
2019-02-14T13:17:21.043Z,9.07
2019-02-14T13:22:45.427Z,11.13
2019-02-14T13:27:56.434Z,15.13
2019-02-14T13:33:01.879Z,12.03
2019-02-14T13:38:07.106Z,9.10
2019-02-14T13:43:12.313Z,10.47
2019-02-14T13:48:17.519Z,8.33
2019-02-14T13:53:41.788Z,11.77
2019-02-14T13:58:52.633Z,4.93
2019-02-14T14:04:17.005Z,8.03
2019-02-14T14:09:22.283Z,6.23
2019-02-14T14:14:27.488Z,10.00
2019-02-14T14:19:32.974Z,9.30
2019-02-14T14:24:50.450Z,12.23
2019-02-14T14:29:55.665Z,11.70
2019-02-14T14:35:00.939Z,13.33
2019-02-14T14:46:21.626Z,10.30
2019-02-14T14:51:27.257Z,10.13
2019-02-14T14:56:33.530Z,12.70
2019-02-14T15:01:39.237Z,11.37
2019-02-14T15:06:56.242Z,13.97
2019-02-14T15:12:01.919Z,8.33
2019-02-14T15:17:19.266Z,5.67
2019-02-14T15:22:36.285Z,9.70
2019-02-14T15:27:41.563Z,16.87
2019-02-14T15:33:05.861Z,10.57
2019-02-14T15:38:32.062Z,20.53
2019-02-14T15:54:55.615Z,10.47
2019-02-14T16:00:10.423Z,12.27
2019-02-14T16:05:40.345Z,13.13
2019-02-14T16:10:56.059Z,11.60
2019-02-14T16:16:08.259Z,23.73
2019-02-14T16:21:13.471Z,48.87
2019-02-14T16:26:30.298Z,25.97
2019-02-14T16:31:35.521Z,11.20
2019-02-14T16:36:59.939Z,14.27
2019-02-14T16:42:05.142Z,12.13
2019-02-14T16:47:10.326Z,13.40
2019-02-14T16:52:15.605Z,17.50
2019-02-14T16:57:21.088Z,13.70
2019-02-14T17:02:26.301Z,11.53
2019-02-14T17:07:31.494Z,20.73
2019-02-14T17:17:53.111Z,26.13
2019-02-14T17:28:46.042Z,26.00
2019-02-14T17:50:39.627Z,21.77
2019-02-14T17:55:44.889Z,20.13
2019-02-14T18:00:57.855Z,24.37
2019-02-14T18:06:03.088Z,25.20
2019-02-14T18:11:08.404Z,26.93
2019-02-14T18:16:13.607Z,21.10
2019-02-14T18:21:18.844Z,21.73
2019-02-14T18:26:24.082Z,27.07
2019-02-14T18:31:41.255Z,30.90
2019-02-14T18:36:46.473Z,25.20
2019-02-14T18:41:51.738Z,22.37
2019-02-14T18:47:03.116Z,25.03
2019-02-14T18:52:27.703Z,27.13
2019-02-14T18:57:34.686Z,24.03
2019-02-14T19:02:59.034Z,21.80
2019-02-14T19:13:21.513Z,22.30
2019-02-14T19:24:02.800Z,28.43
2019-02-14T19:29:08.076Z,24.80
2019-02-14T19:34:24.762Z,25.20
2019-02-14T19:39:30.314Z,27.37
2019-02-14T19:44:35.641Z,27.73
2019-02-14T19:49:54.228Z,28.90
2019-02-14T20:00:36.051Z,32.40
2019-02-14T20:11:10.907Z,26.17
2019-02-14T20:16:35.583Z,29.33
2019-02-14T20:27:17.569Z,34.07
2019-02-14T20:38:13.784Z,29.40
2019-02-14T20:48:54.855Z,27.37
2019-02-14T20:54:00.380Z,40.30
2019-02-14T20:59:17.003Z,31.10
2019-02-14T21:04:22.249Z,32.53
2019-02-14T21:09:27.480Z,33.73
2019-02-14T21:14:32.875Z,27.97
2019-02-14T21:30:53.535Z,55.00
2019-02-14T21:36:12.343Z,42.13
2019-02-14T21:46:35.247Z,34.67
2019-02-14T21:51:40.942Z,29.13
2019-02-14T21:57:05.150Z,38.97
2019-02-14T22:02:29.411Z,32.07
2019-02-14T22:07:35.362Z,33.90
2019-02-14T22:13:06.237Z,27.60
2019-02-14T22:18:50.887Z,33.90
2019-02-14T22:29:26.251Z,31.63
2019-02-14T22:40:01.805Z,27.73
2019-02-14T22:45:18.228Z,27.67
2019-02-14T22:50:23.449Z,25.60
2019-02-14T22:55:28.711Z,29.17
2019-02-14T23:06:45.812Z,21.87
2019-02-14T23:11:51.016Z,20.73
2019-02-14T23:17:15.541Z,22.47
2019-02-14T23:22:20.740Z,24.73
2019-02-14T23:33:06.873Z,18.17
2019-02-14T23:38:12.072Z,19.37
2019-02-14T23:43:17.319Z,20.80
2019-02-14T23:48:22.533Z,21.67
2019-02-14T23:53:28.145Z,22.10
2019-02-14T23:58:33.361Z,21.17
